createdAt,value
2019-02-26T00:00:23.964Z,86.27
2019-02-26T00:01:24.123Z,86.68
2019-02-26T00:02:23.691Z,87.66
2019-02-26T00:03:24.129Z,87.55
2019-02-26T00:04:24.703Z,87.66
2019-02-26T00:05:23.787Z,88.85
2019-02-26T00:06:24.846Z,89.68
2019-02-26T00:07:25.181Z,88.43
2019-02-26T00:08:24.585Z,89.89
2019-02-26T00:09:24.438Z,89.06
2019-02-26T00:10:26.502Z,88.68
2019-02-26T00:11:24.359Z,91.29
2019-02-26T00:12:24.194Z,91.97
2019-02-26T00:13:23.418Z,91.35
2019-02-26T00:14:22.585Z,90.93
2019-02-26T00:15:22.372Z,91.25
2019-02-26T00:16:22.368Z,91.66
2019-02-26T00:17:22.385Z,91.35
2019-02-26T00:18:23.549Z,91.56
2019-02-26T00:19:22.326Z,90.93
2019-02-26T00:20:22.322Z,90.20
2019-02-26T00:21:23.959Z,89.72
2019-02-26T00:22:22.326Z,90.93
2019-02-26T00:23:23.648Z,91.46
2019-02-26T00:24:22.305Z,90.62
2019-02-26T00:25:22.265Z,90.77
2019-02-26T00:26:22.472Z,91.81
2019-02-26T00:27:23.447Z,91.46
2019-02-26T00:28:22.235Z,92.29
2019-02-26T00:29:23.304Z,92.35
2019-02-26T00:30:22.265Z,91.25
2019-02-26T00:31:23.896Z,90.89
2019-02-26T00:32:22.246Z,90.79
2019-02-26T00:33:24.538Z,90.47
2019-02-26T00:34:22.192Z,89.95
2019-02-26T00:35:23.582Z,89.12
2019-02-26T00:36:22.180Z,90.41
2019-02-26T00:37:23.865Z,90.62
2019-02-26T00:38:22.134Z,90.31
2019-02-26T00:39:23.216Z,91.56
2019-02-26T00:40:22.130Z,91.31
2019-02-26T00:41:22.662Z,91.20
2019-02-26T00:42:24.312Z,90.47
2019-02-26T00:43:23.713Z,89.75
2019-02-26T00:44:25.026Z,89.75
2019-02-26T00:45:26.935Z,89.85
2019-02-26T00:46:24.235Z,90.52
2019-02-26T00:47:22.072Z,91.72
2019-02-26T00:48:22.051Z,91.10
2019-02-26T00:49:23.603Z,92.03
2019-02-26T00:50:22.019Z,91.93
2019-02-26T00:51:23.142Z,90.79
2019-02-26T00:52:22.028Z,90.16
2019-02-26T00:53:23.521Z,91.66
2019-02-26T00:54:24.283Z,90.41
2019-02-26T00:55:25.224Z,91.66
2019-02-26T00:56:25.245Z,92.29
2019-02-26T00:57:21.965Z,92.71
2019-02-26T00:58:21.932Z,92.50
2019-02-26T00:59:21.928Z,92.91
2019-02-26T01:00:21.930Z,92.29
2019-02-26T01:01:23.702Z,92.77
2019-02-26T01:02:21.915Z,92.97
2019-02-26T01:03:21.877Z,92.14
2019-02-26T01:04:21.869Z,90.89
2019-02-26T01:05:21.857Z,89.75
2019-02-26T01:06:22.633Z,89.85
2019-02-26T01:07:23.384Z,90.16
2019-02-26T01:08:21.829Z,90.16
2019-02-26T01:09:23.129Z,89.75
2019-02-26T01:10:23.623Z,89.89
2019-02-26T01:11:23.415Z,91.56
2019-02-26T01:12:21.786Z,90.72
2019-02-26T01:13:22.423Z,90.72
2019-02-26T01:14:23.047Z,92.29
2019-02-26T01:15:21.761Z,92.25
2019-02-26T01:16:21.756Z,91.52
2019-02-26T01:17:21.768Z,91.04
2019-02-26T01:18:22.867Z,91.46
2019-02-26T01:19:21.714Z,90.52
2019-02-26T01:20:24.606Z,90.20
2019-02-26T01:21:24.176Z,90.00
2019-02-26T01:22:21.690Z,91.66
2019-02-26T01:23:24.256Z,91.66
2019-02-26T01:24:23.542Z,91.56
2019-02-26T01:25:22.974Z,91.35
2019-02-26T01:26:21.647Z,90.72
2019-02-26T01:27:21.638Z,91.97
2019-02-26T01:28:22.616Z,91.20
2019-02-26T01:29:23.085Z,91.62
2019-02-26T01:30:24.334Z,91.52
2019-02-26T01:31:22.396Z,90.93
2019-02-26T01:32:23.186Z,90.79
2019-02-26T01:33:22.390Z,90.93
2019-02-26T01:34:21.601Z,91.66
2019-02-26T01:35:21.561Z,88.26
2019-02-26T01:36:23.669Z,89.83
2019-02-26T01:37:21.539Z,92.22
2019-02-26T01:38:23.612Z,91.91
2019-02-26T01:39:23.349Z,92.65
2019-02-26T01:40:23.571Z,92.85
2019-02-26T01:41:23.253Z,91.91
2019-02-26T01:42:24.758Z,92.22
2019-02-26T01:43:21.490Z,93.06
2019-02-26T01:44:21.503Z,93.79
2019-02-26T01:45:22.370Z,93.37
2019-02-26T01:46:21.444Z,92.75
2019-02-26T01:47:22.538Z,92.37
2019-02-26T01:48:21.429Z,91.02
2019-02-26T01:49:22.070Z,91.54
2019-02-26T01:50:21.406Z,92.52
2019-02-26T01:51:21.875Z,93.08
2019-02-26T01:52:21.400Z,92.77
2019-02-26T01:53:21.992Z,93.50
2019-02-26T01:54:21.361Z,94.40
2019-02-26T01:55:22.918Z,95.28
2019-02-26T01:56:21.358Z,94.34
2019-02-26T01:57:21.343Z,94.07
2019-02-26T01:58:21.333Z,94.38
2019-02-26T01:59:21.347Z,94.90
2019-02-26T02:00:21.317Z,94.70
2019-02-26T02:01:23.630Z,95.01
2019-02-26T02:02:24.789Z,95.15
2019-02-26T02:03:23.010Z,95.62
2019-02-26T02:04:21.297Z,97.04
2019-02-26T02:05:22.037Z,97.04
2019-02-26T02:06:21.261Z,96.62
2019-02-26T02:07:22.098Z,95.99
2019-02-26T02:08:24.456Z,96.31
2019-02-26T02:09:22.695Z,96.20
2019-02-26T02:10:21.200Z,95.99
2019-02-26T02:11:23.871Z,96.35
2019-02-26T02:12:25.404Z,96.14
2019-02-26T02:13:25.969Z,96.35
2019-02-26T02:14:21.193Z,96.45
2019-02-26T02:15:23.777Z,96.35
2019-02-26T02:16:22.133Z,96.25
2019-02-26T02:17:21.129Z,96.14
2019-02-26T02:18:22.971Z,96.25
2019-02-26T02:19:23.388Z,96.14
2019-02-26T02:20:21.649Z,95.45
2019-02-26T02:21:23.531Z,96.39
2019-02-26T02:22:21.352Z,96.71
2019-02-26T02:23:21.853Z,96.33
2019-02-26T02:24:22.327Z,96.55
2019-02-26T02:25:21.063Z,96.02
2019-02-26T02:26:21.036Z,96.65
2019-02-26T02:27:24.087Z,96.33
2019-02-26T02:28:22.198Z,96.65
2019-02-26T02:29:21.754Z,96.65
2019-02-26T02:30:26.765Z,96.96
2019-02-26T02:31:24.580Z,97.00
2019-02-26T02:32:23.427Z,96.33
2019-02-26T02:33:24.054Z,96.17
2019-02-26T02:34:23.298Z,96.69
2019-02-26T02:35:20.956Z,96.69
2019-02-26T02:36:23.025Z,98.16
2019-02-26T02:37:24.071Z,98.26
2019-02-26T02:38:21.918Z,99.10
2019-02-26T02:39:23.128Z,99.58
2019-02-26T02:40:20.904Z,98.85
2019-02-26T02:41:20.894Z,99.37
2019-02-26T02:42:22.042Z,98.95
2019-02-26T02:43:23.480Z,99.27
2019-02-26T02:44:22.383Z,99.27
2019-02-26T02:45:21.360Z,99.37
2019-02-26T02:46:20.877Z,99.37
2019-02-26T02:47:20.865Z,99.58
2019-02-26T02:48:20.859Z,99.32
2019-02-26T02:49:20.804Z,99.22
2019-02-26T02:50:20.785Z,99.22
2019-02-26T02:51:20.787Z,98.43
2019-02-26T02:52:20.774Z,98.95
2019-02-26T02:53:23.288Z,98.80
2019-02-26T02:54:21.600Z,98.80
2019-02-26T02:55:20.746Z,98.54
2019-02-26T02:56:20.766Z,98.32
2019-02-26T02:57:21.795Z,98.22
2019-02-26T02:58:21.335Z,97.06
2019-02-26T02:59:20.704Z,96.65
2019-02-26T03:00:23.183Z,96.37
2019-02-26T03:01:22.972Z,96.17
2019-02-26T03:02:22.938Z,96.37
2019-02-26T03:03:20.661Z,97.22
2019-02-26T03:04:22.194Z,98.37
2019-02-26T03:05:20.665Z,98.16
2019-02-26T03:06:20.641Z,98.26
2019-02-26T03:07:21.554Z,98.37
2019-02-26T03:08:22.414Z,98.05
2019-02-26T03:09:20.603Z,97.22
2019-02-26T03:10:26.049Z,98.37
2019-02-26T03:11:21.956Z,98.37
2019-02-26T03:12:20.778Z,98.54
2019-02-26T03:13:22.875Z,98.37
2019-02-26T03:14:20.753Z,96.48
2019-02-26T03:15:21.903Z,96.73
2019-02-26T03:16:21.972Z,96.73
2019-02-26T03:17:20.747Z,96.63
2019-02-26T03:18:21.468Z,96.94
2019-02-26T03:19:20.776Z,96.78
2019-02-26T03:20:22.320Z,98.41
2019-02-26T03:21:22.013Z,98.14
2019-02-26T03:22:21.716Z,98.46
2019-02-26T03:23:20.752Z,98.56
2019-02-26T03:24:24.992Z,99.08
2019-02-26T03:25:23.317Z,99.51
2019-02-26T03:26:22.833Z,99.67
2019-02-26T03:27:20.668Z,99.99
2019-02-26T03:28:20.690Z,99.77
2019-02-26T03:29:20.641Z,99.71
2019-02-26T03:30:27.519Z,99.71
2019-02-26T03:31:28.532Z,99.93
2019-02-26T03:32:21.879Z,99.82
2019-02-26T03:33:20.629Z,99.71
2019-02-26T03:34:25.131Z,99.71
2019-02-26T03:35:23.334Z,99.40
2019-02-26T03:36:20.568Z,99.13
2019-02-26T03:37:20.583Z,99.13
2019-02-26T03:38:23.250Z,98.71
2019-02-26T03:39:20.567Z,98.65
2019-02-26T03:40:23.904Z,98.34
2019-02-26T03:41:23.509Z,98.13
2019-02-26T03:42:21.185Z,98.28
2019-02-26T03:43:20.547Z,98.75
2019-02-26T03:44:20.510Z,98.69
2019-02-26T03:45:24.741Z,98.86
2019-02-26T03:46:20.738Z,99.28
2019-02-26T03:47:20.507Z,99.07
2019-02-26T03:48:20.595Z,99.91
2019-02-26T03:49:20.478Z,99.60
2019-02-26T03:50:20.415Z,98.69
2019-02-26T03:51:20.466Z,98.69
2019-02-26T03:52:20.661Z,98.85
2019-02-26T03:53:25.508Z,99.01
2019-02-26T03:54:21.438Z,99.85
2019-02-26T03:55:20.398Z,99.85
2019-02-26T03:56:20.601Z,99.64
2019-02-26T03:57:22.708Z,99.99
2019-02-26T03:58:20.351Z,99.96
2019-02-26T03:59:20.360Z,99.74
2019-02-26T04:00:20.594Z,99.99
2019-02-26T04:01:21.584Z,99.79
2019-02-26T04:02:23.312Z,99.58
2019-02-26T04:03:20.331Z,99.79
2019-02-26T04:04:21.183Z,99.99
2019-02-26T04:05:20.303Z,99.99
2019-02-26T04:06:20.310Z,99.99
2019-02-26T04:07:22.849Z,99.99
2019-02-26T04:08:23.888Z,99.99
2019-02-26T04:09:21.949Z,99.64
2019-02-26T04:10:21.227Z,99.79
2019-02-26T04:11:22.850Z,99.48
2019-02-26T04:12:20.903Z,99.37
2019-02-26T04:13:20.228Z,99.05
2019-02-26T04:14:22.629Z,98.85
2019-02-26T04:15:24.257Z,99.31
2019-02-26T04:16:21.397Z,99.27
2019-02-26T04:17:23.225Z,99.31
2019-02-26T04:18:21.191Z,99.31
2019-02-26T04:19:20.149Z,99.21
2019-02-26T04:20:20.369Z,99.63
2019-02-26T04:21:21.137Z,99.84
2019-02-26T04:22:20.992Z,99.99
2019-02-26T04:23:22.022Z,99.99
2019-02-26T04:24:20.126Z,99.99
2019-02-26T04:25:22.143Z,99.99
2019-02-26T04:26:21.084Z,99.99
2019-02-26T04:27:20.072Z,99.99
2019-02-26T04:28:20.063Z,99.95
2019-02-26T04:29:19.899Z,99.73
2019-02-26T04:30:19.815Z,99.99
2019-02-26T04:31:19.810Z,99.10
2019-02-26T04:32:20.976Z,99.67
2019-02-26T04:33:19.795Z,99.67
2019-02-26T04:34:19.767Z,99.99
2019-02-26T04:35:19.860Z,99.99
2019-02-26T04:36:22.203Z,99.88
2019-02-26T04:37:19.854Z,99.99
2019-02-26T04:38:20.612Z,99.99
2019-02-26T04:39:22.243Z,99.99
2019-02-26T04:40:19.721Z,99.99
2019-02-26T04:41:19.807Z,99.99
2019-02-26T04:42:20.526Z,99.99
2019-02-26T04:43:19.681Z,99.99
2019-02-26T04:44:22.633Z,99.99
2019-02-26T04:45:19.667Z,99.99
2019-02-26T04:46:19.674Z,99.99
2019-02-26T04:47:21.959Z,99.99
2019-02-26T04:48:22.780Z,99.99
2019-02-26T04:49:19.631Z,99.99
2019-02-26T04:50:23.064Z,99.99
2019-02-26T04:51:20.655Z,99.99
2019-02-26T04:52:19.691Z,99.99
2019-02-26T04:53:19.593Z,99.99
2019-02-26T04:54:23.780Z,99.99
2019-02-26T04:55:20.574Z,99.99
2019-02-26T04:56:19.554Z,99.99
2019-02-26T04:57:19.547Z,99.99
2019-02-26T04:58:20.760Z,99.99
2019-02-26T04:59:19.607Z,99.99
2019-02-26T05:00:19.552Z,99.99
2019-02-26T05:01:19.483Z,99.99
2019-02-26T05:02:19.458Z,99.99
2019-02-26T05:03:20.211Z,99.99
2019-02-26T05:04:19.495Z,99.99
2019-02-26T05:05:21.913Z,99.99
2019-02-26T05:06:19.412Z,99.99
2019-02-26T05:07:19.509Z,99.99
2019-02-26T05:08:19.401Z,99.93
2019-02-26T05:09:19.383Z,99.99
2019-02-26T05:10:20.503Z,99.99
2019-02-26T05:11:31.779Z,99.99
2019-02-26T05:12:20.360Z,99.99
2019-02-26T05:13:21.830Z,99.99
2019-02-26T05:14:22.959Z,99.99
2019-02-26T05:15:20.986Z,99.99
2019-02-26T05:16:19.316Z,99.99
2019-02-26T05:17:21.849Z,99.99
2019-02-26T05:18:20.347Z,99.99
2019-02-26T05:19:21.753Z,99.99
2019-02-26T05:20:19.300Z,99.99
2019-02-26T05:21:19.275Z,99.99
2019-02-26T05:22:21.933Z,99.99
2019-02-26T05:23:20.677Z,99.99
2019-02-26T05:24:21.798Z,99.99
2019-02-26T05:25:19.781Z,99.99
2019-02-26T05:26:20.814Z,99.99
2019-02-26T05:27:22.151Z,99.99
2019-02-26T05:28:20.198Z,99.99
2019-02-26T05:29:19.205Z,99.99
2019-02-26T05:30:22.127Z,99.99
2019-02-26T05:31:19.172Z,99.99
2019-02-26T05:32:21.275Z,99.99
2019-02-26T05:33:21.722Z,99.99
2019-02-26T05:34:23.141Z,99.99
2019-02-26T05:35:22.769Z,99.99
2019-02-26T05:36:19.120Z,99.99
2019-02-26T05:37:19.115Z,99.99
2019-02-26T05:38:19.094Z,99.99
2019-02-26T05:39:21.073Z,99.99
2019-02-26T05:40:22.088Z,99.99
2019-02-26T05:41:19.070Z,99.99
2019-02-26T05:42:19.056Z,99.99
2019-02-26T05:43:20.426Z,99.99
2019-02-26T05:44:19.086Z,99.99
2019-02-26T05:45:21.462Z,99.99
2019-02-26T05:46:21.543Z,99.99
2019-02-26T05:47:21.515Z,99.99
2019-02-26T05:48:21.275Z,99.99
2019-02-26T05:49:19.585Z,99.99
2019-02-26T05:50:19.005Z,99.99
2019-02-26T05:51:18.969Z,99.99
2019-02-26T05:52:18.965Z,99.99
2019-02-26T05:53:18.943Z,99.99
2019-02-26T05:54:21.710Z,99.99
2019-02-26T05:55:20.578Z,99.99
2019-02-26T05:56:20.698Z,99.99
2019-02-26T05:57:27.609Z,99.99
2019-02-26T05:58:21.497Z,99.99
2019-02-26T05:59:21.634Z,99.99
2019-02-26T06:00:22.702Z,99.99
2019-02-26T06:01:21.837Z,99.99
2019-02-26T06:02:21.511Z,99.99
2019-02-26T06:03:18.909Z,99.99
2019-02-26T06:04:20.668Z,99.99
2019-02-26T06:05:20.472Z,99.99
2019-02-26T06:06:18.815Z,99.99
2019-02-26T06:07:21.745Z,99.99
2019-02-26T06:08:19.835Z,99.99
2019-02-26T06:09:20.119Z,99.99
2019-02-26T06:10:20.991Z,99.99
2019-02-26T06:11:18.764Z,99.99
2019-02-26T06:12:18.788Z,99.99
2019-02-26T06:13:18.752Z,99.99
2019-02-26T06:14:18.744Z,99.99
2019-02-26T06:15:20.351Z,99.99
2019-02-26T06:16:19.740Z,99.99
2019-02-26T06:17:19.815Z,99.99
2019-02-26T06:18:20.896Z,99.99
2019-02-26T06:19:18.689Z,99.99
2019-02-26T06:20:18.676Z,99.99
2019-02-26T06:21:20.810Z,99.79
2019-02-26T06:22:21.313Z,99.79
2019-02-26T06:23:19.649Z,99.99
2019-02-26T06:24:22.403Z,99.99
2019-02-26T06:25:23.820Z,99.99
2019-02-26T06:26:19.641Z,99.99
2019-02-26T06:27:21.778Z,99.99
2019-02-26T06:28:20.449Z,99.99
2019-02-26T06:29:22.283Z,99.99
2019-02-26T06:30:18.581Z,99.99
2019-02-26T06:31:20.006Z,99.99
2019-02-26T06:32:18.564Z,99.99
2019-02-26T06:33:18.544Z,99.99
2019-02-26T06:34:21.465Z,99.99
2019-02-26T06:35:19.326Z,99.99
2019-02-26T06:36:21.046Z,99.99
2019-02-26T06:37:18.505Z,99.99
2019-02-26T06:38:18.495Z,99.99
2019-02-26T06:39:22.236Z,99.99
2019-02-26T06:40:18.482Z,99.99
2019-02-26T06:41:18.494Z,99.99
2019-02-26T06:42:18.452Z,99.99
2019-02-26T06:43:18.443Z,99.99
2019-02-26T06:44:18.435Z,99.99
2019-02-26T06:45:18.430Z,99.88
2019-02-26T06:46:18.418Z,99.46
2019-02-26T06:47:18.433Z,99.57
2019-02-26T06:48:20.802Z,98.94
2019-02-26T06:49:20.728Z,98.62
2019-02-26T06:50:19.017Z,98.36
2019-02-26T06:51:19.084Z,98.26
2019-02-26T06:52:18.354Z,97.31
2019-02-26T06:53:19.322Z,96.75
2019-02-26T06:54:19.666Z,96.91
2019-02-26T06:55:18.319Z,97.23
2019-02-26T06:56:18.363Z,96.77
2019-02-26T06:57:18.315Z,97.24
2019-02-26T06:58:18.297Z,95.46
2019-02-26T06:59:18.318Z,95.42
2019-02-26T07:00:21.505Z,95.84
2019-02-26T07:01:18.883Z,95.06
2019-02-26T07:02:18.247Z,95.06
2019-02-26T07:03:18.248Z,95.17
2019-02-26T07:04:18.228Z,94.95
2019-02-26T07:05:18.248Z,94.49
2019-02-26T07:06:20.611Z,93.87
2019-02-26T07:07:18.202Z,93.71
2019-02-26T07:08:19.046Z,93.99
2019-02-26T07:09:18.689Z,93.36
2019-02-26T07:10:21.556Z,92.90
2019-02-26T07:11:19.205Z,92.69
2019-02-26T07:12:19.542Z,92.75
2019-02-26T07:13:18.158Z,91.46
2019-02-26T07:14:18.136Z,91.10
2019-02-26T07:15:18.132Z,90.58
2019-02-26T07:16:20.730Z,90.12
2019-02-26T07:17:19.587Z,89.83
2019-02-26T07:18:19.634Z,88.64
2019-02-26T07:19:18.074Z,87.83
2019-02-26T07:20:18.066Z,86.99
2019-02-26T07:21:18.092Z,84.87
2019-02-26T07:22:18.343Z,84.25
2019-02-26T07:23:18.036Z,83.17
2019-02-26T07:24:19.888Z,82.61
2019-02-26T07:25:18.631Z,81.95
2019-02-26T07:26:18.535Z,81.32
2019-02-26T07:27:17.998Z,81.91
2019-02-26T07:28:20.021Z,81.67
2019-02-26T07:29:17.973Z,80.69
2019-02-26T07:30:17.968Z,80.11
2019-02-26T07:31:17.991Z,80.77
2019-02-26T07:32:19.781Z,81.32
2019-02-26T07:33:17.942Z,82.30
2019-02-26T07:34:18.329Z,82.30
2019-02-26T07:35:17.920Z,83.27
2019-02-26T07:36:18.503Z,83.34
2019-02-26T07:37:17.897Z,83.58
2019-02-26T07:38:18.175Z,84.31
2019-02-26T07:39:19.785Z,84.13
2019-02-26T07:40:18.757Z,83.61
2019-02-26T07:41:18.864Z,82.81
2019-02-26T07:42:18.886Z,83.01
2019-02-26T07:43:19.842Z,83.70
2019-02-26T07:44:18.650Z,83.15
2019-02-26T07:45:19.886Z,82.32
2019-02-26T07:46:19.350Z,82.70
2019-02-26T07:47:17.787Z,81.87
2019-02-26T07:48:21.077Z,81.93
2019-02-26T07:49:19.844Z,81.89
2019-02-26T07:50:17.765Z,80.92
2019-02-26T07:51:17.783Z,80.19
2019-02-26T07:52:17.744Z,79.50
2019-02-26T07:53:19.696Z,77.91
2019-02-26T07:54:17.728Z,76.81
2019-02-26T07:55:17.731Z,76.15
2019-02-26T07:56:17.717Z,74.81
2019-02-26T07:57:18.172Z,76.15
2019-02-26T07:58:17.908Z,75.60
2019-02-26T07:59:27.285Z,74.57
2019-02-26T08:00:18.672Z,74.43
2019-02-26T08:01:17.649Z,74.67
2019-02-26T08:02:17.678Z,74.67
2019-02-26T08:03:19.334Z,75.77
2019-02-26T08:04:18.389Z,75.70
2019-02-26T08:05:19.264Z,75.67
2019-02-26T08:06:17.588Z,73.26
2019-02-26T08:07:19.084Z,73.74
2019-02-26T08:08:18.848Z,73.40
2019-02-26T08:09:18.979Z,72.54
2019-02-26T08:10:19.536Z,71.79
2019-02-26T08:11:17.536Z,70.01
2019-02-26T08:12:17.530Z,69.39
2019-02-26T08:13:17.542Z,69.70
2019-02-26T08:14:18.392Z,71.41
2019-02-26T08:15:17.502Z,70.49
2019-02-26T08:16:18.358Z,71.17
2019-02-26T08:17:17.518Z,72.00
2019-02-26T08:18:17.465Z,72.75
2019-02-26T08:19:17.454Z,72.16
2019-02-26T08:20:17.458Z,73.19
2019-02-26T08:21:18.069Z,72.75
2019-02-26T08:22:17.460Z,72.75
2019-02-26T08:23:19.206Z,72.96
2019-02-26T08:24:19.567Z,71.89
2019-02-26T08:25:17.392Z,71.24
2019-02-26T08:26:19.825Z,70.28
2019-02-26T08:27:17.418Z,69.09
2019-02-26T08:28:18.520Z,67.69
2019-02-26T08:29:17.346Z,66.81
2019-02-26T08:30:20.196Z,65.14
2019-02-26T08:31:18.548Z,63.65
2019-02-26T08:32:18.852Z,61.65
2019-02-26T08:33:17.311Z,61.65
2019-02-26T08:34:17.310Z,60.36
2019-02-26T08:35:18.885Z,60.16
2019-02-26T08:36:17.282Z,58.70
2019-02-26T08:37:17.301Z,57.88
2019-02-26T08:38:17.260Z,58.91
2019-02-26T08:39:17.247Z,56.81
2019-02-26T08:40:17.240Z,56.91
2019-02-26T08:41:17.223Z,56.58
2019-02-26T08:42:17.240Z,57.42
2019-02-26T08:43:17.211Z,56.71
2019-02-26T08:44:17.187Z,56.40
2019-02-26T08:45:17.782Z,57.37
2019-02-26T08:46:18.883Z,55.51
2019-02-26T08:47:18.773Z,54.33
2019-02-26T08:48:17.786Z,53.32
2019-02-26T08:49:17.987Z,53.65
2019-02-26T08:50:17.146Z,53.78
2019-02-26T08:51:19.012Z,55.22
2019-02-26T08:52:19.353Z,55.22
2019-02-26T08:53:17.093Z,55.07
2019-02-26T08:54:20.954Z,53.67
2019-02-26T08:55:21.347Z,53.63
2019-02-26T08:56:18.881Z,52.68
2019-02-26T08:57:17.058Z,51.34
2019-02-26T08:58:17.061Z,49.89
2019-02-26T08:59:17.773Z,50.15
2019-02-26T09:00:17.028Z,49.01
2019-02-26T09:01:17.053Z,48.60
2019-02-26T09:02:16.998Z,48.78
2019-02-26T09:03:17.818Z,47.95
2019-02-26T09:04:19.190Z,48.54
2019-02-26T09:05:16.983Z,47.02
2019-02-26T09:06:16.995Z,46.61
2019-02-26T09:07:18.937Z,47.31
2019-02-26T09:08:18.094Z,46.51
2019-02-26T09:09:16.926Z,46.79
2019-02-26T09:10:17.928Z,46.59
2019-02-26T09:11:16.913Z,46.43
2019-02-26T09:12:17.505Z,46.22
2019-02-26T09:13:18.656Z,46.41
2019-02-26T09:14:16.931Z,46.61
2019-02-26T09:15:16.863Z,46.83
2019-02-26T09:16:16.852Z,46.43
2019-02-26T09:17:20.884Z,46.83
2019-02-26T09:18:20.231Z,46.63
2019-02-26T09:19:16.823Z,46.53
2019-02-26T09:20:16.814Z,45.98
2019-02-26T09:21:18.102Z,45.12
2019-02-26T09:22:19.295Z,43.49
2019-02-26T09:23:20.816Z,43.97
2019-02-26T09:24:16.771Z,43.44
2019-02-26T09:25:16.765Z,42.96
2019-02-26T09:26:16.752Z,43.04
2019-02-26T09:27:16.776Z,42.74
2019-02-26T09:28:16.729Z,42.52
2019-02-26T09:29:17.398Z,41.67
2019-02-26T09:30:16.705Z,42.43
2019-02-26T09:31:16.698Z,42.33
2019-02-26T09:32:18.306Z,42.11
2019-02-26T09:33:16.673Z,41.52
2019-02-26T09:34:16.669Z,41.91
2019-02-26T09:35:19.126Z,41.81
2019-02-26T09:36:18.613Z,41.59
2019-02-26T09:37:16.653Z,40.25
2019-02-26T09:38:17.763Z,41.12
2019-02-26T09:39:16.611Z,42.13
2019-02-26T09:40:17.889Z,41.93
2019-02-26T09:41:18.622Z,41.91
2019-02-26T09:42:16.615Z,42.13
2019-02-26T09:43:17.266Z,41.93
2019-02-26T09:44:16.556Z,41.81
2019-02-26T09:45:17.887Z,41.61
2019-02-26T09:46:18.959Z,41.42
2019-02-26T09:47:16.560Z,41.10
2019-02-26T09:48:17.020Z,40.39
2019-02-26T09:49:16.500Z,40.96
2019-02-26T09:50:17.766Z,39.75
2019-02-26T09:51:16.734Z,40.28
2019-02-26T09:52:18.394Z,40.76
2019-02-26T09:53:16.454Z,39.95
2019-02-26T09:54:17.691Z,39.33
2019-02-26T09:55:16.437Z,39.45
2019-02-26T09:56:16.422Z,39.87
2019-02-26T09:57:17.947Z,39.77
2019-02-26T09:58:18.083Z,40.30
2019-02-26T09:59:16.390Z,40.56
2019-02-26T10:00:16.932Z,39.73
2019-02-26T10:01:18.037Z,39.01
2019-02-26T10:02:17.275Z,39.01
2019-02-26T10:03:16.372Z,39.03
2019-02-26T10:04:17.377Z,38.52
2019-02-26T10:05:18.163Z,39.63
2019-02-26T10:06:18.480Z,39.83
2019-02-26T10:07:16.316Z,39.50
2019-02-26T10:08:17.279Z,37.24
2019-02-26T10:09:18.173Z,37.34
2019-02-26T10:10:16.270Z,37.48
2019-02-26T10:11:18.339Z,37.45
2019-02-26T10:12:16.254Z,37.45
2019-02-26T10:13:18.177Z,36.94
2019-02-26T10:14:16.234Z,36.66
2019-02-26T10:15:16.241Z,37.46
2019-02-26T10:16:16.214Z,37.61
2019-02-26T10:17:17.197Z,36.38
2019-02-26T10:18:16.221Z,35.85
2019-02-26T10:19:17.180Z,34.63
2019-02-26T10:20:17.728Z,34.42
2019-02-26T10:21:18.320Z,34.73
2019-02-26T10:22:16.141Z,34.63
2019-02-26T10:23:16.163Z,35.23
2019-02-26T10:24:18.397Z,34.09
2019-02-26T10:25:17.960Z,34.41
2019-02-26T10:26:16.107Z,34.11
2019-02-26T10:27:16.443Z,34.29
2019-02-26T10:28:17.234Z,33.44
2019-02-26T10:29:16.105Z,32.44
2019-02-26T10:30:16.261Z,33.94
2019-02-26T10:31:16.053Z,32.94
2019-02-26T10:32:16.071Z,33.44
2019-02-26T10:33:18.524Z,33.98
2019-02-26T10:34:18.258Z,33.87
2019-02-26T10:35:18.500Z,32.03
2019-02-26T10:36:18.249Z,32.93
2019-02-26T10:37:15.979Z,32.09
2019-02-26T10:38:16.003Z,31.95
2019-02-26T10:39:18.109Z,29.93
2019-02-26T10:40:17.056Z,30.02
2019-02-26T10:41:15.939Z,30.32
2019-02-26T10:42:18.125Z,29.33
2019-02-26T10:43:15.926Z,30.74
2019-02-26T10:44:15.914Z,30.63
2019-02-26T10:45:15.917Z,29.82
2019-02-26T10:46:15.884Z,29.54
2019-02-26T10:47:15.882Z,30.77
2019-02-26T10:48:18.594Z,30.96
2019-02-26T10:49:15.853Z,30.15
2019-02-26T10:50:18.470Z,29.64
2019-02-26T10:51:17.149Z,29.52
2019-02-26T10:52:16.773Z,29.21
2019-02-26T10:53:19.121Z,29.44
2019-02-26T10:54:17.981Z,30.02
2019-02-26T10:55:17.738Z,30.02
2019-02-26T10:56:15.785Z,29.63
2019-02-26T10:57:15.771Z,29.30
2019-02-26T10:58:15.765Z,29.39
2019-02-26T10:59:18.868Z,29.10
2019-02-26T11:00:15.755Z,29.14
2019-02-26T11:01:18.160Z,30.55
2019-02-26T11:02:17.801Z,29.41
2019-02-26T11:03:17.277Z,28.20
2019-02-26T11:04:15.697Z,28.27
2019-02-26T11:05:17.543Z,28.08
2019-02-26T11:06:19.072Z,28.91
2019-02-26T11:07:15.670Z,29.72
2019-02-26T11:08:15.653Z,29.51
2019-02-26T11:09:21.205Z,28.33
2019-02-26T11:10:18.099Z,29.43
2019-02-26T11:11:18.164Z,29.69
2019-02-26T11:12:15.609Z,28.71
2019-02-26T11:13:17.575Z,29.54
2019-02-26T11:14:17.371Z,29.46
2019-02-26T11:15:15.579Z,30.36
2019-02-26T11:16:22.645Z,30.48
2019-02-26T11:17:17.972Z,30.87
2019-02-26T11:18:18.165Z,31.08
2019-02-26T11:19:15.534Z,30.95
2019-02-26T11:20:15.532Z,31.16
2019-02-26T11:21:15.523Z,31.46
2019-02-26T11:22:18.092Z,30.87
2019-02-26T11:23:16.273Z,30.55
2019-02-26T11:24:15.487Z,30.55
2019-02-26T11:25:15.933Z,30.14
2019-02-26T11:26:17.737Z,29.63
2019-02-26T11:27:17.146Z,30.22
2019-02-26T11:28:15.446Z,29.71
2019-02-26T11:29:15.468Z,28.39
2019-02-26T11:30:17.563Z,27.96
2019-02-26T11:31:16.541Z,28.15
2019-02-26T11:32:15.664Z,27.76
2019-02-26T11:33:15.648Z,28.56
2019-02-26T11:34:15.411Z,27.66
2019-02-26T11:35:17.070Z,26.95
2019-02-26T11:36:15.788Z,27.35
2019-02-26T11:37:15.341Z,28.47
2019-02-26T11:38:17.071Z,28.60
2019-02-26T11:39:16.509Z,29.39
2019-02-26T11:40:17.322Z,29.07
2019-02-26T11:41:15.361Z,28.56
2019-02-26T11:42:16.460Z,28.44
2019-02-26T11:43:19.415Z,28.44
2019-02-26T11:44:19.903Z,27.45
2019-02-26T11:45:17.487Z,28.34
2019-02-26T11:46:15.252Z,28.33
2019-02-26T11:47:16.659Z,27.23
2019-02-26T11:48:17.436Z,27.23
2019-02-26T11:49:16.935Z,27.72
2019-02-26T11:50:15.206Z,28.44
2019-02-26T11:51:17.612Z,28.38
2019-02-26T11:52:15.183Z,28.87
2019-02-26T11:53:15.178Z,28.46
2019-02-26T11:54:17.551Z,28.17
2019-02-26T11:55:15.156Z,29.18
2019-02-26T11:56:15.904Z,28.77
2019-02-26T11:57:15.790Z,28.67
2019-02-26T11:58:15.902Z,28.06
2019-02-26T11:59:16.763Z,28.27
2019-02-26T12:00:24.239Z,29.69
2019-02-26T12:01:16.098Z,29.81
2019-02-26T12:02:24.889Z,30.12
2019-02-26T12:03:16.086Z,30.14
2019-02-26T12:04:17.050Z,31.25
2019-02-26T12:05:15.055Z,30.65
2019-02-26T12:06:15.046Z,31.45
2019-02-26T12:07:15.034Z,31.85
2019-02-26T12:08:19.101Z,31.57
2019-02-26T12:09:16.167Z,31.24
2019-02-26T12:10:15.027Z,30.11
2019-02-26T12:11:17.677Z,30.58
2019-02-26T12:12:15.989Z,29.58
2019-02-26T12:13:17.104Z,29.67
2019-02-26T12:14:16.945Z,28.46
2019-02-26T12:15:15.262Z,28.87
2019-02-26T12:16:14.966Z,28.69
2019-02-26T12:17:14.932Z,28.47
2019-02-26T12:18:17.187Z,28.06
2019-02-26T12:19:14.933Z,28.03
2019-02-26T12:20:17.206Z,28.33
2019-02-26T12:21:14.890Z,28.66
2019-02-26T12:22:14.881Z,29.67
2019-02-26T12:23:16.135Z,29.48
2019-02-26T12:24:14.878Z,29.30
2019-02-26T12:25:14.876Z,29.69
2019-02-26T12:26:18.619Z,29.81
2019-02-26T12:27:18.165Z,31.02
2019-02-26T12:28:15.821Z,31.10
2019-02-26T12:29:16.211Z,30.56
2019-02-26T12:30:15.829Z,29.38
2019-02-26T12:31:14.796Z,30.38
2019-02-26T12:32:16.982Z,29.47
2019-02-26T12:33:14.907Z,28.74
2019-02-26T12:34:17.431Z,28.26
2019-02-26T12:35:17.262Z,28.26
2019-02-26T12:36:14.730Z,29.07
2019-02-26T12:37:14.712Z,29.25
2019-02-26T12:38:20.702Z,28.94
2019-02-26T12:39:16.167Z,29.24
2019-02-26T12:40:15.922Z,28.44
2019-02-26T12:41:15.868Z,29.54
2019-02-26T12:42:15.956Z,27.94
2019-02-26T12:43:16.317Z,28.32
2019-02-26T12:44:16.233Z,28.02
2019-02-26T12:45:14.630Z,28.22
2019-02-26T12:46:14.625Z,27.61
2019-02-26T12:47:15.533Z,28.22
2019-02-26T12:48:19.091Z,28.33
2019-02-26T12:49:17.586Z,29.05
2019-02-26T12:50:15.500Z,29.14
2019-02-26T12:51:14.570Z,27.61
2019-02-26T12:52:15.086Z,26.42